Crestline, Ohio
Current Conditions -  °F | °C
As of 6:52 AM on Sunday 25 Jan 2015 (Local Time) from KMFD Reporting Station
Overcast Overcast  
Wind Chill: 28°   Ceiling: 1400
Heat Index: 34°   Visibility: 7mi
Dew Point: 32°   Wind: 7mph
Humidity: 92%   Direction: 200°SSW
Pressure: 29.73"   Gusts: NA
Location:  40.79°N, 82.74°W
Report Text: KMFD 251152Z 20006KT 7SM BKN014 OVC026 01/00 A2973 RMK AO2 SLP078 T00110000 10017 20011 53006
Loading
Personal Weather Stations






























Interactive Weather Map New forecast layout! Learn more

10-Day Weather Forecast

Advertisements
Track Severe Weather on mobile